Beaver Bay, MN

4:08 PM CST on February 07, 2016 (GMT -0600)
Silver Bay Municipal | | Change Station
CLOSE
Current Station
Airport
Location: Silver Bay,
Elevation: 1086 ft
Nearby Weather Stations

Elev 1086 ft 47.25 °N, 91.42 °W | Updated 14 minutes ago

Rain
Rain
36 °F
Feels Like 36 °F
N
0
Wind Variable Wind from North

Today
High -- | Low -- °F
--% Chance of Precip.
Yesterday
High -- | Low -- °F
Precip. -- in
Pressure 29.43 in
Visibility 10.0 miles
Clouds Scattered Clouds 2300 ft
Mostly Cloudy 2900 ft
Overcast 3500 ft
Dew Point 34 °F
Humidity 93%
Rainfall 0.13 in
Snow Depth Not available.
7:23 AM 5:16 PM
Waning Crescent, 1% visible
METAR KBFW 072154Z AUTO 00000KT 10SM -SN SCT023 BKN029 OVC035 02/01 A2943 RMK AO2
Pressure 29.43 in
Visibility 10.0 miles
Clouds Scattered Clouds 2300 ft
Mostly Cloudy 2900 ft
Overcast 3500 ft
Dew Point 34 °F
Humidity 93%
Rainfall 0.13 in
Snow Depth Not available.
7:23 AM 5:16 PM
Waning Crescent, 1% visible
METAR KBFW 072154Z AUTO 00000KT 10SM -SN SCT023 BKN029 OVC035 02/01 A2943 RMK AO2

10-Day Weather Forecast

Almanac

Astronomy

Feb. 07, 2016 Rise Set
Actual Time
Civil Twilight
Nautical Twilight
Astronomical Twilight
Moon
Length of Visible Light
Length of Day
Tomorrow will be .
, % of the Moon is Illuminated

Today's Extremes

State Highs State Lows

Community

WunderPhotos

Upload Photos

1,891,304 photos uploaded!

WunderBlog® & News

Nearby

Air Quality

  Air Quality AQ Index Pollutant
Not available.

Snow Depth

Station Depth Elevation

Earthquake Activity

City Distance Mag. Time & Date
Minimum magnitude displayed is 2.5.

Coastal Water Temperatures

Place Temperature

Stations

Nearby Weather Stations

Station Location Temp. Windchill Dew Point Humidity Wind Precip. Elev Updated Type
                   

Watches & Warnings

There are currently no watches in effect.